sensor_id;sensor_type;location;lat;lon;timestamp;pressure;altitude;pressure_sealevel;temperature;humidity
57847;BME280;43675;50.030;21.952;2022-07-23T00:01:16;98705.68;;;21.45;62.38
57847;BME280;43675;50.030;21.952;2022-07-23T00:03:41;98702.95;;;21.45;62.32
57847;BME280;43675;50.030;21.952;2022-07-23T00:06:07;98702.41;;;21.46;62.37
57847;BME280;43675;50.030;21.952;2022-07-23T00:08:32;98702.95;;;21.45;62.39
57847;BME280;43675;50.030;21.952;2022-07-23T00:10:58;98702.95;;;21.45;62.25
57847;BME280;43675;50.030;21.952;2022-07-23T00:13:23;98704.31;;;21.45;62.20
57847;BME280;43675;50.030;21.952;2022-07-23T00:15:49;98708.41;;;21.45;62.20
57847;BME280;43675;50.030;21.952;2022-07-23T00:18:15;98709.80;;;21.43;62.14
57847;BME280;43675;50.030;21.952;2022-07-23T00:20:40;98714.98;;;21.42;62.13
57847;BME280;43675;50.030;21.952;2022-07-23T00:23:06;98715.29;;;21.40;62.08
57847;BME280;43675;50.030;21.952;2022-07-23T00:25:32;98712.80;;;21.41;61.97
57847;BME280;43675;50.030;21.952;2022-07-23T00:27:58;98719.91;;;21.42;61.97
57847;BME280;43675;50.030;21.952;2022-07-23T00:30:25;98715.29;;;21.40;62.13
57847;BME280;43675;50.030;21.952;2022-07-23T00:32:54;98715.02;;;21.37;62.17
57847;BME280;43675;50.030;21.952;2022-07-23T00:35:20;98711.80;;;21.32;62.17
57847;BME280;43675;50.030;21.952;2022-07-23T00:37:46;98713.73;;;21.27;62.21
57847;BME280;43675;50.030;21.952;2022-07-23T00:40:12;98711.57;;;21.21;62.36
57847;BME280;43675;50.030;21.952;2022-07-23T00:42:38;98716.23;;;21.18;62.46
57847;BME280;43675;50.030;21.952;2022-07-23T00:45:05;98717.89;;;21.14;62.53
57847;BME280;43675;50.030;21.952;2022-07-23T00:47:32;98710.25;;;21.11;62.67
57847;BME280;43675;50.030;21.952;2022-07-23T00:49:58;98711.91;;;21.07;62.74
57847;BME280;43675;50.030;21.952;2022-07-23T00:52:24;98712.74;;;21.02;62.80
57847;BME280;43675;50.030;21.952;2022-07-23T00:54:50;98714.13;;;21.00;62.75
57847;BME280;43675;50.030;21.952;2022-07-23T00:57:16;98715.52;;;20.97;62.83
57847;BME280;43675;50.030;21.952;2022-07-23T00:59:42;98722.33;;;20.95;62.98
57847;BME280;43675;50.030;21.952;2022-07-23T01:02:08;98719.63;;;20.90;63.14
57847;BME280;43675;50.030;21.952;2022-07-23T01:04:33;98723.46;;;20.86;63.28
57847;BME280;43675;50.030;21.952;2022-07-23T01:06:59;98714.77;;;20.79;63.33
57847;BME280;43675;50.030;21.952;2022-07-23T01:09:26;98719.69;;;20.74;63.43
57847;BME280;43675;50.030;21.952;2022-07-23T01:11:54;98718.92;;;20.69;63.52
57847;BME280;43675;50.030;21.952;2022-07-23T01:14:20;98725.74;;;20.64;63.68
57847;BME280;43675;50.030;21.952;2022-07-23T01:16:47;98721.96;;;20.57;63.87
57847;BME280;43675;50.030;21.952;2022-07-23T01:19:14;98723.06;;;20.54;64.04
57847;BME280;43675;50.030;21.952;2022-07-23T01:21:49;98728.55;;;20.46;64.15
57847;BME280;43675;50.030;21.952;2022-07-23T01:24:12;98723.92;;;20.42;64.25
57847;BME280;43675;50.030;21.952;2022-07-23T01:26:38;98718.73;;;20.35;64.43
57847;BME280;43675;50.030;21.952;2022-07-23T01:29:05;98716.59;;;20.29;64.59
57847;BME280;43675;50.030;21.952;2022-07-23T01:31:31;98720.38;;;20.26;64.77
57847;BME280;43675;50.030;21.952;2022-07-23T01:33:56;98718.76;;;20.22;65.04
57847;BME280;43675;50.030;21.952;2022-07-23T01:36:22;98717.13;;;20.19;65.12
57847;BME280;43675;50.030;21.952;2022-07-23T01:38:48;98719.58;;;20.13;65.22
57847;BME280;43675;50.030;21.952;2022-07-23T01:41:14;98719.33;;;20.07;65.39
57847;BME280;43675;50.030;21.952;2022-07-23T01:43:40;98722.88;;;20.02;65.56
57847;BME280;43675;50.030;21.952;2022-07-23T01:46:05;98721.25;;;19.99;65.80
57847;BME280;43675;50.030;21.952;2022-07-23T01:48:31;98716.61;;;19.94;65.89
57847;BME280;43675;50.030;21.952;2022-07-23T01:50:56;98711.98;;;19.90;65.98
57847;BME280;43675;50.030;21.952;2022-07-23T01:53:22;98712.53;;;19.87;66.06
57847;BME280;43675;50.030;21.952;2022-07-23T01:55:47;98714.98;;;19.80;66.09
57847;BME280;43675;50.030;21.952;2022-07-23T01:58:13;98707.91;;;19.74;66.30
57847;BME280;43675;50.030;21.952;2022-07-23T02:00:39;98710.91;;;19.70;66.48
57847;BME280;43675;50.030;21.952;2022-07-23T02:03:05;98716.91;;;19.67;66.70
57847;BME280;43675;50.030;21.952;2022-07-23T02:05:31;98718.78;;;19.64;66.83
57847;BME280;43675;50.030;21.952;2022-07-23T02:07:56;98708.98;;;19.61;66.98
57847;BME280;43675;50.030;21.952;2022-07-23T02:10:23;98714.18;;;19.60;67.00
57847;BME280;43675;50.030;21.952;2022-07-23T02:12:48;98697.84;;;19.52;67.02
57847;BME280;43675;50.030;21.952;2022-07-23T02:15:14;98709.81;;;19.54;67.07
57847;BME280;43675;50.030;21.952;2022-07-23T02:17:40;98706.27;;;19.51;67.08
57847;BME280;43675;50.030;21.952;2022-07-23T02:20:06;98715.25;;;19.46;66.97
57847;BME280;43675;50.030;21.952;2022-07-23T02:22:32;98711.94;;;19.42;67.09
57847;BME280;43675;50.030;21.952;2022-07-23T02:24:58;98713.03;;;19.38;66.96
57847;BME280;43675;50.030;21.952;2022-07-23T02:27:24;98706.77;;;19.37;66.87
57847;BME280;43675;50.030;21.952;2022-07-23T02:29:49;98710.87;;;19.40;66.62
57847;BME280;43675;50.030;21.952;2022-07-23T02:32:15;98708.71;;;19.42;66.46
57847;BME280;43675;50.030;21.952;2022-07-23T02:34:41;98708.16;;;19.45;66.28
57847;BME280;43675;50.030;21.952;2022-07-23T02:37:07;98715.53;;;19.47;66.15
57847;BME280;43675;50.030;21.952;2022-07-23T02:39:33;98714.70;;;19.49;66.04
57847;BME280;43675;50.030;21.952;2022-07-23T02:41:58;98719.88;;;19.51;66.06
57847;BME280;43675;50.030;21.952;2022-07-23T02:44:24;98716.91;;;19.52;66.05
57847;BME280;43675;50.030;21.952;2022-07-23T02:46:49;98719.06;;;19.50;65.99
57847;BME280;43675;50.030;21.952;2022-07-23T02:49:15;98713.09;;;19.48;65.95
57847;BME280;43675;50.030;21.952;2022-07-23T02:51:41;98715.25;;;19.46;65.97
57847;BME280;43675;50.030;21.952;2022-07-23T02:54:06;98712.25;;;19.43;66.01
57847;BME280;43675;50.030;21.952;2022-07-23T02:56:32;98710.87;;;19.40;66.03
57847;BME280;43675;50.030;21.952;2022-07-23T02:58:57;98712.48;;;19.38;66.07
57847;BME280;43675;50.030;21.952;2022-07-23T03:01:23;98714.39;;;19.38;66.15
57847;BME280;43675;50.030;21.952;2022-07-23T03:03:48;98714.39;;;19.38;66.18
57847;BME280;43675;50.030;21.952;2022-07-23T03:06:14;98723.38;;;19.38;66.20
57847;BME280;43675;50.030;21.952;2022-07-23T03:08:40;98720.91;;;19.37;66.32
57847;BME280;43675;50.030;21.952;2022-07-23T03:11:05;98721.19;;;19.38;66.37
57847;BME280;43675;50.030;21.952;2022-07-23T03:13:31;98723.11;;;19.40;66.38
57847;BME280;43675;50.030;21.952;2022-07-23T03:15:56;98713.30;;;19.42;66.37
57847;BME280;43675;50.030;21.952;2022-07-23T03:18:22;98722.06;;;19.44;66.39
57847;BME280;43675;50.030;21.952;2022-07-23T03:20:48;98718.79;;;19.47;66.40
57847;BME280;43675;50.030;21.952;2022-07-23T03:23:13;98708.72;;;19.50;66.51
57847;BME280;43675;50.030;21.952;2022-07-23T03:25:39;98715.79;;;19.53;66.46
57847;BME280;43675;50.030;21.952;2022-07-23T03:28:04;98719.89;;;19.56;66.49
57847;BME280;43675;50.030;21.952;2022-07-23T03:30:30;98726.44;;;19.60;66.46
57847;BME280;43675;50.030;21.952;2022-07-23T03:32:56;98727.24;;;19.63;66.43
57847;BME280;43675;50.030;21.952;2022-07-23T03:35:21;98722.34;;;19.67;66.36
57847;BME280;43675;50.030;21.952;2022-07-23T03:37:47;98718.80;;;19.74;66.36
57847;BME280;43675;50.030;21.952;2022-07-23T03:40:13;98719.06;;;19.80;66.16
57847;BME280;43675;50.030;21.952;2022-07-23T03:42:38;98719.61;;;19.90;65.95
57847;BME280;43675;50.030;21.952;2022-07-23T03:45:05;98720.41;;;20.01;65.89
57847;BME280;43675;50.030;21.952;2022-07-23T03:47:30;98723.67;;;20.13;65.87
57847;BME280;43675;50.030;21.952;2022-07-23T03:49:56;98722.01;;;20.24;65.70
57847;BME280;43675;50.030;21.952;2022-07-23T03:52:22;98723.94;;;20.34;65.35
57847;BME280;43675;50.030;21.952;2022-07-23T03:54:47;98720.35;;;20.44;65.06
57847;BME280;43675;50.030;21.952;2022-07-23T03:57:13;98724.67;;;20.55;65.04
57847;BME280;43675;50.030;21.952;2022-07-23T03:59:38;98722.47;;;20.64;64.97
57847;BME280;43675;50.030;21.952;2022-07-23T04:02:04;98718.58;;;20.78;64.80
57847;BME280;43675;50.030;21.952;2022-07-23T04:04:30;98723.17;;;20.90;64.51
57847;BME280;43675;50.030;21.952;2022-07-23T04:06:55;98720.41;;;21.00;64.40
57847;BME280;43675;50.030;21.952;2022-07-23T04:09:21;98714.88;;;21.10;64.16
57847;BME280;43675;50.030;21.952;2022-07-23T04:11:46;98719.78;;;21.18;64.00
57847;BME280;43675;50.030;21.952;2022-07-23T04:14:12;98719.45;;;21.25;63.87
57847;BME280;43675;50.030;21.952;2022-07-23T04:16:37;98719.44;;;21.33;63.83
57847;BME280;43675;50.030;21.952;2022-07-23T04:19:03;98722.66;;;21.40;63.58
57847;BME280;43675;50.030;21.952;2022-07-23T04:21:29;98733.80;;;21.48;63.43
57847;BME280;43675;50.030;21.952;2022-07-23T04:23:54;98731.53;;;21.58;63.22
57847;BME280;43675;50.030;21.952;2022-07-23T04:26:20;98730.89;;;21.68;62.98
57847;BME280;43675;50.030;21.952;2022-07-23T04:28:45;98727.55;;;21.79;62.82
57847;BME280;43675;50.030;21.952;2022-07-23T04:31:11;98728.86;;;21.87;62.66
57847;BME280;43675;50.030;21.952;2022-07-23T04:33:37;98719.83;;;21.91;62.23
57847;BME280;43675;50.030;21.952;2022-07-23T04:36:03;98722.27;;;21.95;62.02
57847;BME280;43675;50.030;21.952;2022-07-23T04:38:29;98722.50;;;21.99;61.79
57847;BME280;43675;50.030;21.952;2022-07-23T04:40:55;98725.70;;;22.03;61.68
57847;BME280;43675;50.030;21.952;2022-07-23T04:43:21;98724.84;;;22.08;61.72
57847;BME280;43675;50.030;21.952;2022-07-23T04:45:46;98728.59;;;22.17;61.75
57847;BME280;43675;50.030;21.952;2022-07-23T04:48:12;98729.84;;;22.30;61.44
57847;BME280;43675;50.030;21.952;2022-07-23T04:50:38;98732.38;;;22.47;61.07
57847;BME280;43675;50.030;21.952;2022-07-23T04:53:03;98737.88;;;22.74;60.48
57847;BME280;43675;50.030;21.952;2022-07-23T04:55:29;98733.97;;;23.01;60.00
57847;BME280;43675;50.030;21.952;2022-07-23T04:57:54;98732.44;;;23.32;59.33
57847;BME280;43675;50.030;21.952;2022-07-23T05:00:20;98729.53;;;23.64;58.76
57847;BME280;43675;50.030;21.952;2022-07-23T05:02:46;98727.66;;;23.94;58.32
57847;BME280;43675;50.030;21.952;2022-07-23T05:05:11;98722.73;;;24.26;57.53
57847;BME280;43675;50.030;21.952;2022-07-23T05:07:37;98727.14;;;24.54;56.86
57847;BME280;43675;50.030;21.952;2022-07-23T05:10:03;98724.95;;;24.81;56.37
57847;BME280;43675;50.030;21.952;2022-07-23T05:12:29;98726.13;;;25.05;55.88
57847;BME280;43675;50.030;21.952;2022-07-23T05:14:55;98723.50;;;25.24;55.38
57847;BME280;43675;50.030;21.952;2022-07-23T05:17:20;98724.75;;;25.40;55.08
57847;BME280;43675;50.030;21.952;2022-07-23T05:19:46;98717.00;;;25.56;54.56
57847;BME280;43675;50.030;21.952;2022-07-23T05:22:11;98713.09;;;25.71;54.13
57847;BME280;43675;50.030;21.952;2022-07-23T05:24:37;98725.16;;;25.83;53.71
57847;BME280;43675;50.030;21.952;2022-07-23T05:27:03;98719.64;;;25.95;53.33
57847;BME280;43675;50.030;21.952;2022-07-23T05:29:28;98725.51;;;26.02;53.09
57847;BME280;43675;50.030;21.952;2022-07-23T05:31:54;98721.87;;;26.04;53.02
57847;BME280;43675;50.030;21.952;2022-07-23T05:34:19;98721.30;;;26.04;52.91
57847;BME280;43675;50.030;21.952;2022-07-23T05:36:45;98725.77;;;26.03;53.10
57847;BME280;43675;50.030;21.952;2022-07-23T05:39:11;98727.52;;;25.99;52.99
57847;BME280;43675;50.030;21.952;2022-07-23T05:41:36;98727.89;;;25.95;53.02
57847;BME280;43675;50.030;21.952;2022-07-23T05:44:02;98722.52;;;25.89;53.14
57847;BME280;43675;50.030;21.952;2022-07-23T05:46:27;98720.88;;;25.88;53.12
57847;BME280;43675;50.030;21.952;2022-07-23T05:48:53;98726.34;;;25.91;52.98
57847;BME280;43675;50.030;21.952;2022-07-23T05:51:20;98725.37;;;25.96;52.83
57847;BME280;43675;50.030;21.952;2022-07-23T05:53:46;98721.08;;;26.03;52.40
57847;BME280;43675;50.030;21.952;2022-07-23T05:56:12;98724.38;;;26.14;52.04
57847;BME280;43675;50.030;21.952;2022-07-23T05:58:37;98720.00;;;26.24;51.58
57847;BME280;43675;50.030;21.952;2022-07-23T06:01:03;98719.23;;;26.32;51.38
57847;BME280;43675;50.030;21.952;2022-07-23T06:03:29;98717.34;;;26.41;51.00
57847;BME280;43675;50.030;21.952;2022-07-23T06:05:55;98717.05;;;26.51;50.75
57847;BME280;43675;50.030;21.952;2022-07-23T06:08:21;98716.78;;;26.61;50.46
57847;BME280;43675;50.030;21.952;2022-07-23T06:10:46;98713.00;;;26.68;50.45
57847;BME280;43675;50.030;21.952;2022-07-23T06:13:12;98708.09;;;26.76;50.18
57847;BME280;43675;50.030;21.952;2022-07-23T06:15:37;98710.11;;;26.82;50.02
57847;BME280;43675;50.030;21.952;2022-07-23T06:18:03;98706.60;;;26.90;49.99
57847;BME280;43675;50.030;21.952;2022-07-23T06:20:29;98704.86;;;27.03;49.85
57847;BME280;43675;50.030;21.952;2022-07-23T06:22:55;98705.86;;;27.15;49.58
57847;BME280;43675;50.030;21.952;2022-07-23T06:25:20;98707.88;;;27.29;49.48
57847;BME280;43675;50.030;21.952;2022-07-23T06:27:47;98707.41;;;27.45;49.15
57847;BME280;43675;50.030;21.952;2022-07-23T06:30:13;98708.57;;;27.61;49.00
57847;BME280;43675;50.030;21.952;2022-07-23T06:32:39;98704.75;;;27.77;48.63
57847;BME280;43675;50.030;21.952;2022-07-23T06:35:05;98698.41;;;27.93;48.33
57847;BME280;43675;50.030;21.952;2022-07-23T06:37:31;98703.96;;;28.08;48.07
57847;BME280;43675;50.030;21.952;2022-07-23T06:39:56;98703.56;;;28.20;47.80
57847;BME280;43675;50.030;21.952;2022-07-23T06:42:22;98711.58;;;28.28;47.41
57847;BME280;43675;50.030;21.952;2022-07-23T06:44:47;98714.35;;;28.19;47.28
57847;BME280;43675;50.030;21.952;2022-07-23T06:47:13;98714.19;;;28.07;47.46
57847;BME280;43675;50.030;21.952;2022-07-23T06:49:39;98709.08;;;28.03;47.69
57847;BME280;43675;50.030;21.952;2022-07-23T06:52:04;98707.07;;;28.06;47.61
57847;BME280;43675;50.030;21.952;2022-07-23T06:54:30;98709.03;;;28.14;47.70
57847;BME280;43675;50.030;21.952;2022-07-23T06:56:55;98714.43;;;28.26;47.62
57847;BME280;43675;50.030;21.952;2022-07-23T06:59:21;98707.16;;;28.36;47.35
57847;BME280;43675;50.030;21.952;2022-07-23T07:01:47;98706.57;;;28.45;47.18
57847;BME280;43675;50.030;21.952;2022-07-23T07:04:12;98697.69;;;28.54;46.87
57847;BME280;43675;50.030;21.952;2022-07-23T07:06:38;98707.69;;;28.67;46.69
57847;BME280;43675;50.030;21.952;2022-07-23T07:09:03;98702.86;;;28.79;46.23
57847;BME280;43675;50.030;21.952;2022-07-23T07:11:29;98704.59;;;28.92;45.96
57847;BME280;43675;50.030;21.952;2022-07-23T07:13:54;98697.77;;;29.04;45.74
57847;BME280;43675;50.030;21.952;2022-07-23T07:16:20;98693.46;;;29.15;45.37
57847;BME280;43675;50.030;21.952;2022-07-23T07:18:47;98691.78;;;29.23;45.08
57847;BME280;43675;50.030;21.952;2022-07-23T07:21:14;98699.34;;;29.28;45.04
57847;BME280;43675;50.030;21.952;2022-07-23T07:23:40;98695.11;;;29.37;44.78
57847;BME280;43675;50.030;21.952;2022-07-23T07:26:05;98695.62;;;29.45;44.64
57847;BME280;43675;50.030;21.952;2022-07-23T07:28:31;98690.50;;;29.55;44.48
57847;BME280;43675;50.030;21.952;2022-07-23T07:30:57;98690.64;;;29.65;44.29
57847;BME280;43675;50.030;21.952;2022-07-23T07:33:22;98686.17;;;29.67;44.17
57847;BME280;43675;50.030;21.952;2022-07-23T07:35:48;98688.01;;;29.69;44.12
57847;BME280;43675;50.030;21.952;2022-07-23T07:38:14;98679.84;;;29.72;44.48
57847;BME280;43675;50.030;21.952;2022-07-23T07:40:39;98686.91;;;29.82;44.13
57847;BME280;43675;50.030;21.952;2022-07-23T07:43:05;98684.23;;;29.94;43.55
57847;BME280;43675;50.030;21.952;2022-07-23T07:45:31;98686.78;;;29.99;43.48
57847;BME280;43675;50.030;21.952;2022-07-23T07:47:57;98683.45;;;30.05;43.37
57847;BME280;43675;50.030;21.952;2022-07-23T07:50:23;98685.77;;;30.16;43.22
57847;BME280;43675;50.030;21.952;2022-07-23T07:52:49;98681.19;;;30.26;43.26
57847;BME280;43675;50.030;21.952;2022-07-23T07:55:15;98682.36;;;30.37;43.04
57847;BME280;43675;50.030;21.952;2022-07-23T07:57:40;98683.52;;;30.42;43.44
57847;BME280;43675;50.030;21.952;2022-07-23T08:00:07;98685.73;;;30.55;43.46
57847;BME280;43675;50.030;21.952;2022-07-23T08:02:48;98681.59;;;30.67;43.31
57847;BME280;43675;50.030;21.952;2022-07-23T08:05:18;98672.37;;;30.81;43.33
57847;BME280;43675;50.030;21.952;2022-07-23T08:07:42;98680.55;;;30.95;43.01
57847;BME280;43675;50.030;21.952;2022-07-23T08:10:09;98676.41;;;31.08;42.89
57847;BME280;43675;50.030;21.952;2022-07-23T08:12:43;98681.55;;;31.21;42.57
57847;BME280;43675;50.030;21.952;2022-07-23T08:15:07;98673.00;;;31.32;42.12
57847;BME280;43675;50.030;21.952;2022-07-23T08:17:33;98672.84;;;31.41;42.02
57847;BME280;43675;50.030;21.952;2022-07-23T08:19:59;98682.41;;;31.50;42.03
57847;BME280;43675;50.030;21.952;2022-07-23T08:22:24;98683.55;;;31.61;41.78
57847;BME280;43675;50.030;21.952;2022-07-23T08:24:50;98683.06;;;31.71;41.30
57847;BME280;43675;50.030;21.952;2022-07-23T08:27:15;98684.88;;;31.79;41.19
57847;BME280;43675;50.030;21.952;2022-07-23T08:29:41;98673.39;;;31.86;40.78
57847;BME280;43675;50.030;21.952;2022-07-23T08:32:07;98678.56;;;31.94;40.77
57847;BME280;43675;50.030;21.952;2022-07-23T08:34:32;98678.74;;;32.01;40.68
57847;BME280;43675;50.030;21.952;2022-07-23T08:36:58;98674.80;;;32.08;40.45
57847;BME280;43675;50.030;21.952;2022-07-23T08:39:23;98677.32;;;32.13;40.43
57847;BME280;43675;50.030;21.952;2022-07-23T08:41:50;98675.79;;;32.16;40.29
57847;BME280;43675;50.030;21.952;2022-07-23T08:44:16;98672.09;;;32.18;40.29
57847;BME280;43675;50.030;21.952;2022-07-23T08:46:43;98678.89;;;32.20;40.52
57847;BME280;43675;50.030;21.952;2022-07-23T08:49:10;98672.62;;;32.23;40.08
57847;BME280;43675;50.030;21.952;2022-07-23T08:51:35;98671.31;;;32.27;40.04
57847;BME280;43675;50.030;21.952;2022-07-23T08:54:01;98668.86;;;32.31;39.74
57847;BME280;43675;50.030;21.952;2022-07-23T08:56:27;98667.06;;;32.39;39.10
57847;BME280;43675;50.030;21.952;2022-07-23T08:58:54;98666.23;;;32.45;38.67
57847;BME280;43675;50.030;21.952;2022-07-23T09:01:19;98665.16;;;32.49;38.22
57847;BME280;43675;50.030;21.952;2022-07-23T09:03:45;98666.05;;;32.53;38.31
57847;BME280;43675;50.030;21.952;2022-07-23T09:06:10;98659.31;;;32.54;38.21
57847;BME280;43675;50.030;21.952;2022-07-23T09:08:41;98656.64;;;32.58;37.95
57847;BME280;43675;50.030;21.952;2022-07-23T09:11:15;98647.47;;;32.63;37.79
57847;BME280;43675;50.030;21.952;2022-07-23T09:13:50;98651.72;;;32.67;38.00
57847;BME280;43675;50.030;21.952;2022-07-23T09:16:39;98646.13;;;32.73;37.79
57847;BME280;43675;50.030;21.952;2022-07-23T09:18:53;98647.21;;;32.78;37.83
57847;BME280;43675;50.030;21.952;2022-07-23T09:21:28;98646.09;;;32.89;37.50
57847;BME280;43675;50.030;21.952;2022-07-23T09:24:00;98643.39;;;33.02;36.53
57847;BME280;43675;50.030;21.952;2022-07-23T09:26:41;98637.63;;;33.10;36.34
57847;BME280;43675;50.030;21.952;2022-07-23T09:29:15;98638.63;;;33.18;34.95
57847;BME280;43675;50.030;21.952;2022-07-23T09:34:23;98628.28;;;33.09;34.21
57847;BME280;43675;50.030;21.952;2022-07-23T09:36:52;98622.49;;;33.08;34.54
57847;BME280;43675;50.030;21.952;2022-07-23T09:39:30;98629.47;;;33.17;34.50
57847;BME280;43675;50.030;21.952;2022-07-23T09:41:57;98621.73;;;33.26;33.88
57847;BME280;43675;50.030;21.952;2022-07-23T09:44:22;98622.03;;;33.31;33.59
57847;BME280;43675;50.030;21.952;2022-07-23T09:46:50;98621.13;;;33.37;33.51
57847;BME280;43675;50.030;21.952;2022-07-23T09:49:21;98617.25;;;33.41;33.24
57847;BME280;43675;50.030;21.952;2022-07-23T09:51:52;98620.49;;;33.43;33.29
57847;BME280;43675;50.030;21.952;2022-07-23T09:54:30;98626.12;;;33.47;33.16
57847;BME280;43675;50.030;21.952;2022-07-23T09:56:56;98627.00;;;33.51;32.82
57847;BME280;43675;50.030;21.952;2022-07-23T09:59:25;98620.99;;;33.58;32.44
57847;BME280;43675;50.030;21.952;2022-07-23T10:01:53;98628.05;;;33.71;32.36
57847;BME280;43675;50.030;21.952;2022-07-23T10:04:19;98629.12;;;33.86;31.97
57847;BME280;43675;50.030;21.952;2022-07-23T10:06:46;98627.33;;;33.97;31.46
57847;BME280;43675;50.030;21.952;2022-07-23T10:09:14;98612.64;;;34.10;30.78
57847;BME280;43675;50.030;21.952;2022-07-23T10:11:41;98616.09;;;34.23;30.63
57847;BME280;43675;50.030;21.952;2022-07-23T10:14:07;98610.38;;;34.38;30.50
57847;BME280;43675;50.030;21.952;2022-07-23T10:16:33;98609.61;;;34.54;30.18
57847;BME280;43675;50.030;21.952;2022-07-23T10:18:59;98613.09;;;34.71;29.90
57847;BME280;43675;50.030;21.952;2022-07-23T10:21:29;98620.11;;;34.87;29.88
57847;BME280;43675;50.030;21.952;2022-07-23T10:26:51;98612.77;;;35.15;28.83
57847;BME280;43675;50.030;21.952;2022-07-23T10:29:36;98618.20;;;35.21;29.11
57847;BME280;43675;50.030;21.952;2022-07-23T10:32:08;98610.95;;;35.30;29.12
57847;BME280;43675;50.030;21.952;2022-07-23T10:34:44;98606.26;;;35.37;29.03
57847;BME280;43675;50.030;21.952;2022-07-23T10:37:36;98603.95;;;35.43;28.90
57847;BME280;43675;50.030;21.952;2022-07-23T10:42:39;98604.39;;;35.48;28.88
57847;BME280;43675;50.030;21.952;2022-07-23T10:45:32;98600.69;;;35.54;28.77
57847;BME280;43675;50.030;21.952;2022-07-23T10:48:19;98599.69;;;35.69;28.90
57847;BME280;43675;50.030;21.952;2022-07-23T10:59:17;98592.59;;;36.16;27.65
57847;BME280;43675;50.030;21.952;2022-07-23T11:01:42;98595.85;;;36.04;27.68
57847;BME280;43675;50.030;21.952;2022-07-23T11:04:08;98594.48;;;35.88;27.34
57847;BME280;43675;50.030;21.952;2022-07-23T11:09:26;98601.05;;;35.66;28.26
57847;BME280;43675;50.030;21.952;2022-07-23T11:15:07;98588.31;;;35.88;27.99
57847;BME280;43675;50.030;21.952;2022-07-23T11:20:14;98581.33;;;36.29;26.97
57847;BME280;43675;50.030;21.952;2022-07-23T11:25:28;98569.66;;;36.43;26.24
57847;BME280;43675;50.030;21.952;2022-07-23T11:27:44;98576.22;;;36.38;26.14
57847;BME280;43675;50.030;21.952;2022-07-23T11:35:38;98564.85;;;35.96;26.64
57847;BME280;43675;50.030;21.952;2022-07-23T11:38:06;98560.26;;;35.94;26.97
57847;BME280;43675;50.030;21.952;2022-07-23T11:40:33;98558.64;;;35.93;26.76
57847;BME280;43675;50.030;21.952;2022-07-23T11:43:07;98551.23;;;35.91;26.82
57847;BME280;43675;50.030;21.952;2022-07-23T11:45:48;98559.20;;;35.89;27.04
57847;BME280;43675;50.030;21.952;2022-07-23T11:48:21;98542.23;;;35.88;26.85
57847;BME280;43675;50.030;21.952;2022-07-23T11:50:47;98545.03;;;35.88;26.39
57847;BME280;43675;50.030;21.952;2022-07-23T11:53:13;98548.66;;;35.92;26.14
57847;BME280;43675;50.030;21.952;2022-07-23T11:55:39;98542.08;;;35.91;25.78
57847;BME280;43675;50.030;21.952;2022-07-23T11:58:05;98540.66;;;35.87;26.05
57847;BME280;43675;50.030;21.952;2022-07-23T12:00:31;98539.13;;;35.97;26.06
57847;BME280;43675;50.030;21.952;2022-07-23T12:03:03;98536.39;;;36.04;26.05
57847;BME280;43675;50.030;21.952;2022-07-23T12:05:32;98524.95;;;36.16;26.17
57847;BME280;43675;50.030;21.952;2022-07-23T12:07:59;98534.85;;;36.30;26.31
57847;BME280;43675;50.030;21.952;2022-07-23T12:10:27;98531.91;;;36.40;25.84
57847;BME280;43675;50.030;21.952;2022-07-23T12:12:58;98529.34;;;36.44;25.96
57847;BME280;43675;50.030;21.952;2022-07-23T12:15:28;98523.38;;;36.46;26.04
57847;BME280;43675;50.030;21.952;2022-07-23T12:17:54;98521.17;;;36.45;25.76
57847;BME280;43675;50.030;21.952;2022-07-23T12:20:22;98527.59;;;36.49;26.25
57847;BME280;43675;50.030;21.952;2022-07-23T12:22:51;98524.27;;;36.57;25.86
57847;BME280;43675;50.030;21.952;2022-07-23T12:25:19;98523.72;;;36.65;25.82
57847;BME280;43675;50.030;21.952;2022-07-23T12:27:46;98520.56;;;36.70;25.74
57847;BME280;43675;50.030;21.952;2022-07-23T12:30:19;98513.98;;;36.75;25.90
57847;BME280;43675;50.030;21.952;2022-07-23T12:32:47;98510.15;;;36.70;25.96
57847;BME280;43675;50.030;21.952;2022-07-23T12:35:13;98513.91;;;36.61;25.94
57847;BME280;43675;50.030;21.952;2022-07-23T12:37:41;98516.20;;;36.48;25.95
57847;BME280;43675;50.030;21.952;2022-07-23T12:40:30;98518.70;;;36.33;26.09
57847;BME280;43675;50.030;21.952;2022-07-23T12:43:09;98508.38;;;36.14;26.35
57847;BME280;43675;50.030;21.952;2022-07-23T12:45:53;98514.18;;;35.94;26.67
57847;BME280;43675;50.030;21.952;2022-07-23T12:48:27;98501.38;;;35.90;26.25
57847;BME280;43675;50.030;21.952;2022-07-23T12:51:01;98498.70;;;35.84;26.62
57847;BME280;43675;50.030;21.952;2022-07-23T12:53:32;98497.31;;;35.84;26.77
57847;BME280;43675;50.030;21.952;2022-07-23T12:56:10;98488.99;;;35.87;26.45
57847;BME280;43675;50.030;21.952;2022-07-23T12:58:44;98488.02;;;35.93;26.77
57847;BME280;43675;50.030;21.952;2022-07-23T13:04:06;98480.95;;;36.06;26.15
57847;BME280;43675;50.030;21.952;2022-07-23T13:09:08;98475.89;;;35.95;25.63
57847;BME280;43675;50.030;21.952;2022-07-23T13:11:34;98475.83;;;35.91;25.72
57847;BME280;43675;50.030;21.952;2022-07-23T13:14:01;98471.03;;;35.88;25.45
57847;BME280;43675;50.030;21.952;2022-07-23T13:16:30;98465.26;;;35.87;25.17
57847;BME280;43675;50.030;21.952;2022-07-23T13:18:57;98460.29;;;35.90;25.30
57847;BME280;43675;50.030;21.952;2022-07-23T13:21:23;98462.91;;;35.96;25.12
57847;BME280;43675;50.030;21.952;2022-07-23T13:23:49;98465.92;;;35.97;24.97
57847;BME280;43675;50.030;21.952;2022-07-23T13:26:15;98460.31;;;35.94;25.23
57847;BME280;43675;50.030;21.952;2022-07-23T13:28:41;98456.73;;;35.97;25.15